Time;durP1;ratioP1;P1;durP2;ratioP2;P2;SDS_P1;SDS_P2;PMS_P1;PMS_P2;Temp;Humidity;BMP_temperature;BMP_pressure;BME280_temperature;BME280_humidity;BME280_pressure;Samples;Min_cycle;Max_cycle;Signal;HPM_P1;HPM_P2
2021/12/21 05:44:57;;;;;;;3.85;2.70;;;;;;;-3.19;82.59;99504.59;1692551;83;21695;-45
2021/12/21 05:47:24;;;;;;;3.05;2.35;;;;;;;-3.21;82.79;99512.22;1675317;83;21081;-39
2021/12/21 05:49:51;;;;;;;2.85;2.40;;;;;;;-3.21;81.74;99516.06;1668963;84;21576;-46
2021/12/21 05:52:18;;;;;;;2.90;2.20;;;;;;;-3.21;81.57;99521.17;1671022;82;21154;-46
2021/12/21 05:54:44;;;;;;;4.08;2.70;;;;;;;-3.21;81.28;99522.45;1676687;82;21122;-39
2021/12/21 05:57:11;;;;;;;3.10;2.45;;;;;;;-3.21;81.67;99521.58;1671370;83;21152;-46
2021/12/21 05:59:38;;;;;;;3.55;2.83;;;;;;;-3.19;81.64;99528.91;1620009;86;21143;-38
2021/12/21 06:02:06;;;;;;;3.20;2.50;;;;;;;-3.17;82.07;99532.84;1617372;86;21083;-38
2021/12/21 06:04:33;;;;;;;3.45;2.60;;;;;;;-3.14;81.82;99550.45;1668401;83;21409;-46
2021/12/21 06:07:00;;;;;;;2.67;2.47;;;;;;;-3.11;81.83;99553.16;1674096;83;21025;-39
2021/12/21 06:09:28;;;;;;;4.22;2.50;;;;;;;-3.12;81.26;99553.97;1635367;85;21090;-37
2021/12/21 06:12:32;;;;;;;3.05;2.40;;;;;;;-3.11;81.64;99566.36;1624099;86;21097;-37
2021/12/21 06:33:06;;;;;;;3.35;2.17;;;;;;;-3.30;80.28;99594.12;1659431;84;21202;-46
2021/12/21 06:36:39;;;;;;;2.17;1.52;;;;;;;-3.30;80.81;99605.64;1639607;85;22159;-46
2021/12/21 06:44:00;;;;;;;2.12;1.65;;;;;;;-3.57;74.28;99628.30;1631349;84;21102;-45
2021/12/21 06:56:07;;;;;;;2.67;1.30;;;;;;;-4.14;70.39;99645.22;1670563;83;21082;-39
2021/12/21 06:59:28;;;;;;;1.95;1.45;;;;;;;-4.22;69.69;99649.97;1670884;83;21158;-40
2021/12/21 07:03:01;;;;;;;3.75;2.00;;;;;;;-4.31;68.58;99667.39;1662920;83;21094;-47
2021/12/21 07:06:03;;;;;;;3.85;1.82;;;;;;;-4.40;68.42;99656.75;1653440;83;21186;-46
2021/12/21 07:29:12;;;;;;;3.02;0.85;;;;;;;-4.54;70.97;99680.30;1625621;85;21433;-47
2021/12/21 07:33:10;;;;;;;6.40;1.30;;;;;;;-4.47;67.99;99691.70;1668852;83;21120;-45
2021/12/21 07:41:01;;;;;;;2.22;1.50;;;;;;;-4.45;68.14;99710.14;1671010;83;20977;-37
2021/12/21 07:53:10;;;;;;;6.35;1.22;;;;;;;-4.25;67.60;99732.83;1677077;82;21112;-40
2021/12/21 07:56:46;;;;;;;2.45;1.02;;;;;;;-4.22;67.44;99742.34;1662150;84;21378;-46
2021/12/21 08:00:34;;;;;;;0.88;0.68;;;;;;;-4.19;67.21;99740.80;1679159;82;21759;-38
2021/12/21 08:08:20;;;;;;;1.52;1.15;;;;;;;-4.14;66.20;99740.63;1674913;82;21040;-37
2021/12/21 08:12:30;;;;;;;1.82;1.07;;;;;;;-4.14;67.33;99743.59;1685333;82;21096;-46
2021/12/21 08:24:33;;;;;;;2.50;1.10;;;;;;;-3.99;66.41;99753.30;1618628;85;21076;-38
2021/12/21 08:28:14;;;;;;;1.30;1.10;;;;;;;-3.96;66.74;99740.66;1674663;82;21195;-38
2021/12/21 08:32:07;;;;;;;2.05;1.57;;;;;;;-3.91;67.01;99745.59;1676664;83;21099;-47
2021/12/21 08:39:45;;;;;;;1.05;0.95;;;;;;;-3.64;66.97;99742.62;1679364;83;21060;-38
2021/12/21 08:43:01;;;;;;;2.42;1.50;;;;;;;-3.56;67.61;99739.60;1654753;84;21029;-46
2021/12/21 08:46:28;;;;;;;2.20;1.30;;;;;;;-3.41;67.35;99755.21;1660395;84;21733;-46
2021/12/21 08:49:49;;;;;;;2.22;1.35;;;;;;;-3.35;67.94;99749.09;1615897;85;21536;-38
2021/12/21 08:52:17;;;;;;;1.20;1.10;;;;;;;-3.38;67.50;99748.94;1668971;82;21086;-38
2021/12/21 08:55:02;;;;;;;;;;;;;;;-3.44;67.36;99762.73;1695331;82;21493;-38
2021/12/21 08:57:29;;;;;;;1.85;1.12;;;;;;;-3.57;65.03;99753.60;1672208;83;20100;-37
2021/12/21 09:00:12;;;;;;;2.52;1.57;;;;;;;-3.72;65.60;99749.03;1672251;82;21451;-37
2021/12/21 09:02:50;;;;;;;6.05;1.07;;;;;;;-3.80;67.00;99744.43;1666467;84;21062;-46
2021/12/21 09:14:07;;;;;;;3.40;1.87;;;;;;;-3.92;67.68;99743.84;1674224;83;21094;-39
2021/12/21 09:17:44;;;;;;;2.75;1.30;;;;;;;-3.87;68.70;99736.41;1655714;82;21141;-45
2021/12/21 09:25:41;;;;;;;3.20;1.37;;;;;;;-3.68;69.75;99747.09;1666129;82;20981;-39
2021/12/21 09:38:24;;;;;;;2.20;1.40;;;;;;;-3.75;68.72;99738.27;1670603;82;21048;-46
2021/12/21 09:46:22;;;;;;;1.47;1.30;;;;;;;-3.86;67.90;99728.80;1634979;85;21111;-47
2021/12/21 09:49:55;;;;;;;2.08;1.02;;;;;;;-3.93;68.88;99742.09;1676501;82;21725;-38
2021/12/21 10:00:44;;;;;;;2.50;1.20;;;;;;;-3.89;72.94;99739.27;1676487;83;21570;-46
2021/12/21 10:29:05;;;;;;;1.85;1.35;;;;;;;-3.06;63.13;99721.88;1662928;84;21093;-38
2021/12/21 10:40:31;;;;;;;3.77;2.30;;;;;;;-3.46;66.30;99733.66;1664105;83;26751;-46
2021/12/21 10:51:31;;;;;;;3.30;2.22;;;;;;;-3.35;68.93;99738.87;1633695;84;21104;-38
2021/12/21 10:54:45;;;;;;;5.53;2.37;;;;;;;-3.26;69.48;99738.86;1680092;81;21436;-38
2021/12/21 11:01:26;;;;;;;2.75;1.80;;;;;;;-3.32;70.48;99742.42;1674741;83;21086;-47
2021/12/21 11:17:40;;;;;;;2.05;1.70;;;;;;;-4.09;79.81;99763.86;1650991;83;21041;-44
2021/12/21 11:25:06;;;;;;;5.87;2.62;;;;;;;-4.98;83.48;99783.96;1657961;83;20163;-37
2021/12/21 11:28:36;;;;;;;1.05;0.75;;;;;;;-5.13;85.62;99774.67;1659097;83;21036;-37
2021/12/21 11:32:10;;;;;;;3.75;2.20;;;;;;;-5.24;86.00;99782.55;1669884;83;21821;-43
2021/12/21 11:39:36;;;;;;;6.83;3.12;;;;;;;-5.37;88.05;99802.68;1668494;83;21069;-44
2021/12/21 11:43:21;;;;;;;5.58;3.20;;;;;;;-5.42;87.57;99806.64;1658439;84;21088;-37
2021/12/21 11:46:15;;;;;;;;;;;;;;;-5.42;86.91;99805.37;1661069;84;21096;-38
2021/12/21 11:50:10;;;;;;;5.55;3.47;;;;;;;-5.42;85.98;99813.89;1627315;85;20187;-44
2021/12/21 11:53:17;;;;;;;7.75;3.37;;;;;;;-5.39;86.00;99814.48;1621532;85;21681;-45
2021/12/21 12:16:00;;;;;;;6.87;3.00;;;;;;;-5.01;82.46;99824.20;1628851;85;22162;-38
2021/12/21 12:19:21;;;;;;;6.70;3.75;;;;;;;-5.05;81.53;99822.67;1629620;85;22130;-38
2021/12/21 12:22:09;;;;;;;7.80;3.52;;;;;;;-5.13;81.37;99823.14;1624954;85;21077;-38
2021/12/21 12:25:24;;;;;;;8.25;3.20;;;;;;;-5.15;82.02;99826.42;1618916;85;21599;-39
2021/12/21 12:32:18;;;;;;;7.40;4.08;;;;;;;-5.07;82.62;99842.14;1657372;84;21201;-46
2021/12/21 12:39:53;;;;;;;3.05;2.02;;;;;;;-5.03;82.30;99857.70;1648290;84;21035;-45
2021/12/21 12:43:34;;;;;;;3.40;2.27;;;;;;;-5.05;80.79;99849.47;1622636;85;21149;-37
2021/12/21 12:50:32;;;;;;;6.87;2.72;;;;;;;-5.21;78.94;99851.20;1645556;83;21634;-37
2021/12/21 12:53:41;;;;;;;4.83;2.85;;;;;;;-5.24;78.92;99858.66;1664996;83;21054;-37
2021/12/21 12:56:29;;;;;;;5.30;2.80;;;;;;;-5.25;79.21;99863.69;1649402;83;21102;-38
2021/12/21 12:59:44;;;;;;;4.80;2.33;;;;;;;-5.27;79.23;99868.71;1653735;83;21049;-37
2021/12/21 13:03:24;;;;;;;4.12;2.62;;;;;;;-5.29;79.72;99873.23;1640711;84;21125;-46
2021/12/21 13:07:11;;;;;;;9.70;3.58;;;;;;;-5.37;80.94;99881.34;1601544;86;21183;-45
2021/12/21 13:19:01;;;;;;;8.43;4.55;;;;;;;-6.10;79.83;99893.67;1610462;86;21603;-44
2021/12/21 13:21:54;;;;;;;15.75;6.30;;;;;;;-6.23;78.31;99909.89;1622819;84;21656;-44
2021/12/21 13:24:29;;;;;;;32.70;11.05;;;;;;;-6.32;77.31;99923.36;1677660;83;21665;-42
2021/12/21 13:27:43;;;;;;;18.20;7.33;;;;;;;-6.42;76.54;99927.40;1663986;83;21008;-43
2021/12/21 13:30:10;;;;;;;24.32;8.60;;;;;;;-6.50;77.16;99929.84;1625851;85;20995;-45
2021/12/21 13:32:37;;;;;;;18.00;5.17;;;;;;;-6.67;79.38;99941.92;1638577;85;21105;-46
2021/12/21 13:35:04;;;;;;;6.62;3.85;;;;;;;-6.79;80.14;99947.13;1625587;86;21083;-47
2021/12/21 13:37:31;;;;;;;6.47;3.62;;;;;;;-6.88;80.22;99952.53;1655330;84;21121;-47
2021/12/21 13:40:07;;;;;;;6.37;3.27;;;;;;;-6.93;80.59;99959.38;1645018;84;21078;-45
2021/12/21 13:42:36;;;;;;;6.92;3.83;;;;;;;-6.98;79.97;99962.50;1639424;85;21072;-46
2021/12/21 13:45:05;;;;;;;4.80;2.72;;;;;;;-7.00;79.76;99961.93;1635281;85;21530;-38
2021/12/21 13:47:37;;;;;;;7.17;3.87;;;;;;;-7.01;79.45;99970.34;1648814;84;21023;-38
2021/12/21 13:50:26;;;;;;;8.30;3.75;;;;;;;-7.04;79.71;99976.10;1624422;85;21031;-45
2021/12/21 13:52:57;;;;;;;6.58;4.37;;;;;;;-7.05;79.55;99983.25;1604137;87;21090;-45
2021/12/21 13:55:37;;;;;;;7.55;3.05;;;;;;;-7.09;79.32;99982.94;1675861;84;21637;-38
2021/12/21 13:58:07;;;;;;;4.47;3.15;;;;;;;-7.11;78.32;99984.52;1643760;84;21068;-37
2021/12/21 14:00:38;;;;;;;2.60;2.02;;;;;;;-7.17;77.28;99994.30;1628382;85;21066;-38
2021/12/21 14:03:16;;;;;;;4.83;2.72;;;;;;;-7.25;76.13;99994.69;1648352;84;21103;-45
2021/12/21 14:05:43;;;;;;;6.87;3.10;;;;;;;-7.32;75.87;99999.24;1651169;86;21086;-38
2021/12/21 14:08:10;;;;;;;9.55;4.83;;;;;;;-7.37;76.19;99996.78;1640851;86;21893;-45
2021/12/21 14:10:51;;;;;;;7.83;2.35;;;;;;;-7.38;76.14;100003.53;1650991;85;21471;-37
2021/12/21 14:13:20;;;;;;;4.65;2.22;;;;;;;-7.39;75.96;100004.71;1671045;84;21064;-44
2021/12/21 14:15:47;;;;;;;4.30;2.25;;;;;;;-7.40;75.95;100006.77;1627065;85;21101;-44
2021/12/21 14:18:19;;;;;;;3.30;1.85;;;;;;;-7.40;75.86;100011.85;1685808;84;21149;-45
2021/12/21 14:20:48;;;;;;;2.08;1.25;;;;;;;-7.45;75.17;100020.83;1651275;85;21141;-44
2021/12/21 14:23:19;;;;;;;3.80;2.02;;;;;;;-7.57;74.08;100025.97;1660542;83;21076;-37
2021/12/21 14:25:46;;;;;;;3.25;1.85;;;;;;;-7.71;74.42;100031.41;1688451;83;21146;-38
2021/12/21 14:28:55;;;;;;;6.42;2.70;;;;;;;-7.83;74.70;100037.81;1668115;84;21113;-40
2021/12/21 14:31:41;;;;;;;3.52;1.70;;;;;;;-7.92;75.36;100038.83;1662194;84;21608;-45
2021/12/21 14:34:06;;;;;;;;;;;;;;;-7.99;73.53;100040.46;1665189;84;21060;-37
2021/12/21 14:36:36;;;;;;;3.05;1.47;;;;;;;-8.13;70.20;100048.38;1682927;83;20488;-37
2021/12/21 14:39:10;;;;;;;2.55;1.40;;;;;;;-8.30;67.99;100068.77;1667162;83;21033;-38
2021/12/21 14:41:40;;;;;;;1.27;0.93;;;;;;;-8.30;67.99;100068.77;1660185;85;21108;-44
2021/12/21 14:44:16;;;;;;;2.42;1.20;;;;;;;-8.39;67.93;100069.05;1664691;83;21065;-44
2021/12/21 14:47:03;;;;;;;3.22;2.00;;;;;;;-8.43;67.23;100075.94;1664726;85;21071;-45
2021/12/21 14:49:50;;;;;;;2.25;1.47;;;;;;;-8.45;67.57;100082.95;1662890;85;21166;-43
2021/12/21 14:52:24;;;;;;;5.85;2.30;;;;;;;-8.50;66.38;100083.02;1666562;85;21557;-46
2021/12/21 14:55:09;;;;;;;3.98;1.92;;;;;;;-8.59;65.67;100087.91;1662803;84;21076;-45
